Time;durP1;ratioP1;P1;durP2;ratioP2;P2;SDS_P1;SDS_P2;PMS_P1;PMS_P2;Temp;Humidity;BMP_temperature;BMP_pressure;BME280_temperature;BME280_humidity;BME280_pressure;Samples;Min_cycle;Max_cycle;Signal;HPM_P1;HPM_P2
2022/04/24 04:00:12;;;;;;;38.23;18.33;;;;;;;;;;6066357;23;20374;31
2022/04/24 04:02:44;;;;;;;9.80;6.27;;;6.60;96.30;;;;;;4952908;29;20553;-75
2022/04/24 04:05:10;;;;;;;9.60;6.37;;;6.80;96.30;;;;;;4938391;29;20437;-74
2022/04/24 04:07:36;;;;;;;7.90;5.27;;;6.90;96.30;;;;;;4954978;29;20426;-74
2022/04/24 04:10:02;;;;;;;7.87;6.30;;;7.00;96.30;;;;;;4955727;29;20504;-75
2022/04/24 04:12:27;;;;;;;6.23;5.63;;;7.00;96.30;;;;;;4955462;28;20733;-75
2022/04/24 04:14:53;;;;;;;9.10;6.23;;;;;;;;;;4955903;29;20190;-75
2022/04/24 04:17:19;;;;;;;5.60;5.10;;;7.00;96.30;;;;;;4956708;29;20186;-74
2022/04/24 04:19:44;;;;;;;8.70;6.00;;;7.00;96.30;;;;;;4958083;29;20187;-75
2022/04/24 04:22:10;;;;;;;6.37;5.70;;;6.90;96.30;;;;;;5746007;22;20225;-73
2022/04/24 04:24:36;;;;;;;7.30;5.50;;;6.90;96.30;;;;;;4974547;28;20850;-76
2022/04/24 04:27:03;;;;;;;6.27;5.10;;;6.90;96.30;;;;;;4957281;28;20245;-76
2022/04/24 04:29:29;;;;;;;11.30;5.70;;;6.90;96.30;;;;;;4974056;28;21132;-74
2022/04/24 04:31:55;;;;;;;7.80;6.57;;;6.90;96.30;;;;;;4974421;28;20512;-76
2022/04/24 04:34:21;;;;;;;6.70;6.00;;;;;;;;;;4956955;28;20676;-75
2022/04/24 04:36:47;;;;;;;6.10;5.50;;;7.10;96.30;;;;;;4974367;28;20202;-74
2022/04/24 04:39:12;;;;;;;6.70;5.97;;;7.40;96.30;;;;;;4956307;28;20425;-74
2022/04/24 04:41:38;;;;;;;6.53;5.80;;;7.80;96.30;;;;;;4974047;28;20483;-74
2022/04/24 04:44:03;;;;;;;8.27;5.47;;;8.00;96.30;;;;;;4956784;28;20178;-74
2022/04/24 04:46:29;;;;;;;8.13;6.10;;;;;;;;;;4974225;28;20261;-74
2022/04/24 04:48:55;;;;;;;7.30;5.77;;;8.20;96.30;;;;;;4956206;28;20326;-76
2022/04/24 04:51:20;;;;;;;7.37;6.10;;;8.30;96.30;;;;;;4956679;28;20546;-76
2022/04/24 04:53:46;;;;;;;7.07;6.37;;;8.40;96.30;;;;;;4974025;28;20605;-74
2022/04/24 04:56:12;;;;;;;7.83;6.13;;;;;;;;;;4956058;28;20194;-76
2022/04/24 04:58:38;;;;;;;7.27;6.53;;;;;;;;;;4966330;28;20183;-76
2022/04/24 05:01:03;;;;;;;8.20;5.23;;;8.60;96.30;;;;;;4964685;28;20780;-76
2022/04/24 05:03:30;;;;;;;8.03;6.60;;;8.70;96.30;;;;;;4973753;28;20421;-76
2022/04/24 05:05:56;;;;;;;6.93;6.00;;;8.80;96.30;;;;;;4956486;28;20619;-74
2022/04/24 05:08:22;;;;;;;7.43;6.50;;;8.80;96.30;;;;;;4973136;28;20449;-76
2022/04/24 05:10:47;;;;;;;7.93;6.10;;;8.90;96.30;;;;;;4956451;28;20194;-74
2022/04/24 05:13:13;;;;;;;10.17;6.70;;;8.90;96.30;;;;;;4973592;28;20213;-74
2022/04/24 05:15:38;;;;;;;9.33;5.60;;;8.90;96.30;;;;;;4961295;28;20701;-75
2022/04/24 05:18:04;;;;;;;6.47;5.73;;;8.90;96.30;;;;;;4950492;28;20182;-76
2022/04/24 05:20:32;;;;;;;8.93;6.70;;;8.90;96.30;;;;;;4973065;28;20190;-76
2022/04/24 05:23:07;;;;;;;6.20;5.60;;;9.00;96.30;;;;;;4956067;28;20229;-76
2022/04/24 05:25:35;;;;;;;6.63;6.00;;;9.00;96.30;;;;;;4956459;28;20425;-77
2022/04/24 05:28:01;;;;;;;7.20;6.50;;;;;;;;;;4973547;28;20420;-77
2022/04/24 05:30:28;;;;;;;7.97;7.10;;;9.20;96.30;;;;;;4973388;28;20847;-75
2022/04/24 05:32:54;;;;;;;10.30;7.30;;;;;;;;;;4973577;28;20496;-76
2022/04/24 05:35:20;;;;;;;10.90;6.73;;;;;;;;;;4973133;28;20553;-74
2022/04/24 05:37:47;;;;;;;7.10;6.40;;;9.50;96.30;;;;;;4966159;28;20960;-77
2022/04/24 05:40:13;;;;;;;7.97;7.10;;;9.80;96.30;;;;;;4960443;28;20431;-75
2022/04/24 05:42:50;;;;;;;8.17;6.80;;;10.20;96.30;;;;;;4973412;28;20772;-76
2022/04/24 05:45:18;;;;;;;8.70;7.30;;;10.60;96.30;;;;;;4956029;28;20830;-75
2022/04/24 05:47:45;;;;;;;6.80;6.10;;;11.60;96.30;;;;;;4955797;28;20429;-76
2022/04/24 05:50:11;;;;;;;7.03;6.30;;;12.20;96.30;;;;;;4973174;28;20452;-76
2022/04/24 05:52:36;;;;;;;7.30;6.60;;;12.60;96.30;;;;;;4973431;28;20438;-75
2022/04/24 05:55:02;;;;;;;10.20;7.57;;;13.00;94.80;;;;;;4956381;28;20583;-77
2022/04/24 05:57:28;;;;;;;8.27;7.07;;;12.40;96.30;;;;;;4955229;28;20205;-76
2022/04/24 05:59:53;;;;;;;9.87;8.67;;;12.10;96.30;;;;;;4973162;28;20417;-75
2022/04/24 06:02:19;;;;;;;11.33;8.80;;;11.70;96.30;;;;;;4973160;28;20234;-76
2022/04/24 06:04:44;;;;;;;16.73;9.43;;;11.30;96.30;;;;;;4972765;28;20261;-75
2022/04/24 06:07:10;;;;;;;11.07;9.13;;;11.50;96.30;;;;;;4974567;28;20174;-75
2022/04/24 06:09:35;;;;;;;11.27;9.37;;;11.80;96.30;;;;;;4976841;28;20174;-75
2022/04/24 06:12:01;;;;;;;12.50;9.27;;;11.80;96.30;;;;;;4977074;28;20208;-75
2022/04/24 06:14:27;;;;;;;14.97;9.17;;;11.80;96.30;;;;;;4976898;28;20181;-75
2022/04/24 06:16:53;;;;;;;11.07;8.27;;;11.80;96.30;;;;;;4975304;28;20293;-75
2022/04/24 06:19:18;;;;;;;9.93;8.60;;;11.70;96.30;;;;;;4975774;28;20174;-76
2022/04/24 06:21:44;;;;;;;8.03;7.23;;;11.90;96.30;;;;;;4976250;28;20217;-75
2022/04/24 06:24:09;;;;;;;11.60;8.73;;;11.60;96.30;;;;;;4976605;28;20277;-74
2022/04/24 06:26:35;;;;;;;11.17;8.93;;;11.40;96.30;;;;;;4976824;28;20182;-74
2022/04/24 06:29:02;;;;;;;8.13;7.20;;;;;;;;;;4976516;28;20199;-76
2022/04/24 06:31:28;;;;;;;8.80;7.90;;;11.40;96.30;;;;;;4975956;28;20190;-75
2022/04/24 06:33:53;;;;;;;12.03;8.77;;;11.20;96.30;;;;;;4976377;28;20421;-75
2022/04/24 06:36:19;;;;;;;10.40;9.30;;;10.90;96.30;;;;;;4976093;28;20194;-74
2022/04/24 06:38:45;;;;;;;12.47;9.97;;;;;;;;;;4975384;28;20666;-75
2022/04/24 06:41:10;;;;;;;8.73;7.73;;;10.50;96.30;;;;;;4976182;28;20194;-75
2022/04/24 06:43:36;;;;;;;13.70;11.07;;;10.50;96.30;;;;;;4976050;28;20539;-76
2022/04/24 06:46:01;;;;;;;10.40;9.30;;;10.50;96.30;;;;;;4976025;28;20589;-74
2022/04/24 06:48:27;;;;;;;12.30;10.53;;;10.60;96.30;;;;;;4975252;28;20189;-76
2022/04/24 06:50:52;;;;;;;13.70;11.63;;;10.80;96.30;;;;;;4975649;28;20201;-75
2022/04/24 06:53:20;;;;;;;15.87;11.13;;;10.90;96.30;;;;;;4975914;28;20669;-74
2022/04/24 06:55:47;;;;;;;12.83;11.47;;;11.10;96.30;;;;;;4975916;28;20759;-74
2022/04/24 06:58:15;;;;;;;14.73;10.10;;;11.20;96.30;;;;;;4975112;28;20410;-75
2022/04/24 07:00:43;;;;;;;11.60;10.40;;;11.30;96.30;;;;;;4975763;28;21011;-75
2022/04/24 07:03:13;;;;;;;13.20;10.33;;;11.40;96.30;;;;;;4975835;28;20410;-75
2022/04/24 07:05:40;;;;;;;13.37;11.67;;;11.10;96.30;;;;;;4975746;28;20418;-75
2022/04/24 07:08:06;;;;;;;14.40;11.80;;;11.30;96.30;;;;;;4975215;28;20401;-74
2022/04/24 07:10:32;;;;;;;12.77;10.77;;;11.20;96.30;;;;;;4975677;28;20472;-76
2022/04/24 07:12:59;;;;;;;12.50;10.70;;;11.20;96.30;;;;;;4973114;28;20783;-77
2022/04/24 07:15:29;;;;;;;12.83;10.97;;;11.10;96.30;;;;;;4957484;28;20537;-75
2022/04/24 07:17:56;;;;;;;12.37;9.10;;;11.20;96.30;;;;;;4974839;28;20413;-75
2022/04/24 07:20:21;;;;;;;10.70;9.30;;;11.30;96.30;;;;;;4958252;28;20484;-74
2022/04/24 07:22:48;;;;;;;11.83;9.80;;;11.30;96.30;;;;;;4976102;28;20426;-73
2022/04/24 07:25:15;;;;;;;13.50;10.53;;;11.20;96.30;;;;;;4958780;28;20188;-76
2022/04/24 07:27:42;;;;;;;16.13;10.00;;;11.00;96.30;;;;;;4976071;28;20471;-76
2022/04/24 07:30:13;;;;;;;11.47;8.90;;;11.10;96.30;;;;;;4952818;28;20425;-73
2022/04/24 07:32:40;;;;;;;13.60;10.57;;;11.00;96.30;;;;;;4975829;28;20533;-73
2022/04/24 07:35:08;;;;;;;12.43;11.23;;;10.90;96.30;;;;;;4975832;28;20779;-74
2022/04/24 07:37:34;;;;;;;14.70;11.43;;;10.90;96.30;;;;;;4975484;28;20414;-74
2022/04/24 07:39:59;;;;;;;14.50;10.13;;;11.10;96.30;;;;;;4969361;28;20438;-75
2022/04/24 07:42:25;;;;;;;12.67;11.37;;;11.20;96.30;;;;;;4938425;29;20686;-74
2022/04/24 07:44:51;;;;;;;13.60;11.40;;;11.30;96.30;;;;;;4955517;29;20178;-74
2022/04/24 07:47:16;;;;;;;14.40;10.90;;;11.30;96.30;;;;;;4955612;29;20598;-75
2022/04/24 07:49:42;;;;;;;10.20;8.87;;;11.40;96.30;;;;;;4955661;29;20178;-74
2022/04/24 07:52:07;;;;;;;11.47;9.67;;;11.60;96.30;;;;;;4956200;28;20202;-77
2022/04/24 07:54:33;;;;;;;10.93;9.00;;;11.40;96.30;;;;;;4956468;29;20175;-74
2022/04/24 07:56:58;;;;;;;12.40;10.50;;;11.40;96.30;;;;;;4956068;29;20302;-74
2022/04/24 07:59:24;;;;;;;12.73;9.97;;;11.40;96.30;;;;;;4938149;29;20206;-76
2022/04/24 08:01:51;;;;;;;15.10;10.00;;;11.40;96.30;;;;;;4955888;28;20199;-75
2022/04/24 08:04:17;;;;;;;16.30;10.30;;;11.40;96.30;;;;;;4955889;29;20635;-74
2022/04/24 08:06:43;;;;;;;12.33;10.80;;;11.40;96.30;;;;;;4955992;29;20450;-74
2022/04/24 08:09:08;;;;;;;12.43;8.70;;;;;;;;;;4955064;29;20454;-77
2022/04/24 08:11:34;;;;;;;10.83;9.73;;;11.40;96.30;;;;;;4955615;28;20636;-77
2022/04/24 08:13:59;;;;;;;9.87;8.77;;;11.30;96.30;;;;;;4962292;28;20244;-77
2022/04/24 08:16:26;;;;;;;10.47;9.30;;;11.20;96.30;;;;;;4973838;28;20206;-77
2022/04/24 08:18:52;;;;;;;9.73;8.73;;;11.00;96.30;;;;;;4956866;28;20174;-76
2022/04/24 08:21:18;;;;;;;10.37;8.70;;;10.90;96.30;;;;;;4957540;28;20460;-76
2022/04/24 08:23:43;;;;;;;9.03;7.70;;;10.90;96.30;;;;;;4959505;28;20450;-76
2022/04/24 08:26:10;;;;;;;11.23;8.20;;;10.90;96.30;;;;;;4954408;29;20186;-76
2022/04/24 08:28:36;;;;;;;8.50;7.50;;;10.90;96.30;;;;;;4955789;28;20195;-76
2022/04/24 08:31:02;;;;;;;9.33;7.80;;;10.90;96.30;;;;;;4973538;28;20445;-76
2022/04/24 08:33:28;;;;;;;9.47;7.97;;;10.90;96.30;;;;;;4957408;28;20417;-76
2022/04/24 08:35:53;;;;;;;11.63;7.43;;;10.80;96.30;;;;;;4974416;28;20654;-76
2022/04/24 08:38:19;;;;;;;7.60;6.50;;;10.80;96.30;;;;;;4973957;28;20182;-76
2022/04/24 08:40:46;;;;;;;7.47;6.60;;;10.80;96.30;;;;;;4974239;28;20201;-77
2022/04/24 08:43:14;;;;;;;7.53;6.43;;;10.80;96.30;;;;;;4973605;28;20583;-77
2022/04/24 08:45:44;;;;;;;8.90;6.50;;;10.80;96.30;;;;;;4944343;29;20845;-76
2022/04/24 08:48:09;;;;;;;7.17;6.10;;;10.80;96.30;;;;;;4954482;29;20437;-77
2022/04/24 08:50:36;;;;;;;8.60;6.60;;;10.80;96.30;;;;;;4954951;29;20799;-77
2022/04/24 08:53:03;;;;;;;8.40;7.13;;;10.90;96.30;;;;;;4937923;29;20219;-76
2022/04/24 08:55:30;;;;;;;10.17;6.50;;;10.90;96.30;;;;;;4954798;29;20974;-76
2022/04/24 08:57:56;;;;;;;7.87;6.40;;;10.80;96.30;;;;;;4936991;29;20446;-76
2022/04/24 09:00:22;;;;;;;11.00;7.10;;;10.90;96.30;;;;;;4937223;29;20454;-77
2022/04/24 09:02:49;;;;;;;6.80;6.10;;;10.90;96.30;;;;;;4954831;29;20179;-77
2022/04/24 09:05:14;;;;;;;9.03;5.87;;;10.80;96.30;;;;;;4954844;29;20766;-77
2022/04/24 09:07:43;;;;;;;8.87;6.67;;;10.70;96.30;;;;;;4954204;29;20406;-76
2022/04/24 09:10:11;;;;;;;10.40;6.60;;;10.60;96.30;;;;;;4937392;29;20206;-75
2022/04/24 09:12:38;;;;;;;6.93;5.00;;;10.50;96.30;;;;;;4937256;29;20930;-76
2022/04/24 09:15:05;;;;;;;8.43;6.83;;;10.60;96.30;;;;;;4937179;29;20455;-78
2022/04/24 09:17:32;;;;;;;10.40;6.70;;;10.50;96.30;;;;;;4936910;29;20454;-77
2022/04/24 09:19:59;;;;;;;14.00;7.17;;;10.50;96.30;;;;;;4954310;29;20867;-76
2022/04/24 09:22:25;;;;;;;8.70;6.90;;;10.60;96.30;;;;;;4959477;28;20461;-76
2022/04/24 09:24:56;;;;;;;10.10;6.93;;;10.50;96.30;;;;;;4956283;28;20468;-76
2022/04/24 09:27:24;;;;;;;8.30;7.10;;;10.50;96.30;;;;;;4973743;28;20481;-75
2022/04/24 09:30:11;;;;;;;11.30;8.33;;;10.40;96.30;;;;;;4973283;28;20445;-76
2022/04/24 09:32:47;;;;;;;7.90;7.10;;;10.20;96.30;;;;;;4967439;28;20437;-76
2022/04/24 09:35:42;;;;;;;10.93;8.57;;;10.30;96.30;;;;;;4956044;28;20432;-76
2022/04/24 09:38:10;;;;;;;7.83;7.03;;;10.50;96.30;;;;;;4960824;28;20928;-76
2022/04/24 09:40:40;;;;;;;8.40;7.50;;;10.50;96.30;;;;;;4973250;28;20947;-75
2022/04/24 09:43:10;;;;;;;9.00;7.07;;;10.60;96.30;;;;;;4955966;28;20418;-76
2022/04/24 09:45:37;;;;;;;9.20;7.87;;;10.60;96.30;;;;;;4973502;28;20452;-76
2022/04/24 09:48:14;;;;;;;8.27;6.60;;;10.70;96.30;;;;;;4972789;28;20448;-76
2022/04/24 09:50:40;;;;;;;8.40;7.60;;;10.60;96.30;;;;;;4973298;28;20461;-77
2022/04/24 09:53:06;;;;;;;10.03;7.30;;;10.70;96.30;;;;;;4970184;28;20418;-77
2022/04/24 09:55:32;;;;;;;8.50;7.00;;;10.80;96.30;;;;;;4967312;28;20949;-76
2022/04/24 09:57:59;;;;;;;10.03;8.07;;;10.80;96.30;;;;;;4972724;28;20485;-75
2022/04/24 10:00:25;;;;;;;9.93;7.73;;;10.70;96.30;;;;;;4972748;28;20405;-77
2022/04/24 10:02:52;;;;;;;8.50;7.60;;;10.70;96.30;;;;;;4955362;28;20956;-77
2022/04/24 10:05:18;;;;;;;10.23;8.73;;;10.70;96.30;;;;;;4971460;28;20828;-76
2022/04/24 10:07:45;;;;;;;8.97;7.87;;;10.90;96.30;;;;;;4969009;28;20430;-77
2022/04/24 10:10:11;;;;;;;7.93;7.13;;;10.90;96.30;;;;;;4968768;28;20178;-78
2022/04/24 10:12:37;;;;;;;7.80;7.00;;;10.60;96.30;;;;;;4972683;28;20421;-77
2022/04/24 10:15:12;;;;;;;7.10;6.40;;;10.50;96.30;;;;;;4955688;28;20440;-78
2022/04/24 10:17:40;;;;;;;8.70;6.80;;;10.20;96.30;;;;;;4953623;28;20785;-78
2022/04/24 10:20:24;;;;;;;8.57;6.50;;;10.10;96.30;;;;;;4967627;28;20436;-78
2022/04/24 10:22:53;;;;;;;8.40;7.60;;;10.10;96.30;;;;;;4968604;28;20434;-78
2022/04/24 10:25:29;;;;;;;8.33;7.43;;;10.10;96.30;;;;;;4947983;29;20419;-78
2022/04/24 10:27:55;;;;;;;8.63;7.27;;;10.20;96.30;;;;;;4959853;28;20951;-78
2022/04/24 10:30:25;;;;;;;7.93;7.13;;;10.20;96.30;;;;;;4952531;28;20422;-77
2022/04/24 10:33:15;;;;;;;7.83;7.03;;;10.30;96.30;;;;;;4955637;28;20532;-77
2022/04/24 10:35:48;;;;;;;11.00;7.00;;;10.40;96.30;;;;;;4972739;28;20497;-77
2022/04/24 10:38:14;;;;;;;7.67;6.60;;;10.40;96.30;;;;;;4972447;28;20413;-77
2022/04/24 10:40:40;;;;;;;7.70;6.90;;;10.50;96.30;;;;;;4972806;28;20429;-77
2022/04/24 10:43:07;;;;;;;9.13;7.60;;;10.60;96.30;;;;;;4970990;28;20179;-78
2022/04/24 10:45:45;;;;;;;9.07;8.00;;;10.70;96.30;;;;;;4969543;28;20183;-77
2022/04/24 10:48:15;;;;;;;9.10;7.67;;;10.70;96.30;;;;;;4971761;28;20428;-76
2022/04/24 10:50:48;;;;;;;8.40;7.60;;;10.50;96.30;;;;;;4986255;28;20439;-77
2022/04/24 10:53:14;;;;;;;11.77;7.93;;;;;;;;;;4990866;28;20424;-77
2022/04/24 10:55:42;;;;;;;7.87;7.07;;;;;;;;;;4995455;28;20456;-77
2022/04/24 10:58:09;;;;;;;9.63;7.50;;;10.40;96.30;;;;;;4982545;28;20413;-77
2022/04/24 11:00:35;;;;;;;7.83;7.03;;;10.30;96.30;;;;;;4966763;28;20944;-76
2022/04/24 11:03:13;;;;;;;9.70;7.80;;;10.30;96.30;;;;;;4966537;28;20442;-76
2022/04/24 11:05:52;;;;;;;8.30;7.00;;;10.20;96.30;;;;;;4965971;28;20498;-77
2022/04/24 11:08:20;;;;;;;8.63;7.63;;;10.20;96.30;;;;;;4974524;28;20410;-76
2022/04/24 11:10:48;;;;;;;10.90;7.70;;;10.20;96.30;;;;;;4976117;28;20442;-75
2022/04/24 11:13:16;;;;;;;8.57;7.70;;;10.30;96.30;;;;;;4976189;28;20424;-76
2022/04/24 11:15:44;;;;;;;10.03;8.30;;;10.40;96.30;;;;;;4958416;28;20977;-75
2022/04/24 11:18:19;;;;;;;8.23;7.33;;;10.40;96.30;;;;;;4957453;28;20430;-75
2022/04/24 11:21:03;;;;;;;10.50;7.63;;;10.60;96.30;;;;;;4946658;28;20469;-77
2022/04/24 11:23:32;;;;;;;7.63;6.93;;;10.80;96.30;;;;;;4956933;29;20434;-76
2022/04/24 11:25:59;;;;;;;8.43;7.53;;;10.90;96.30;;;;;;4941935;29;20831;-77
2022/04/24 11:28:35;;;;;;;11.03;7.97;;;10.80;96.30;;;;;;4970151;28;20949;-75
2022/04/24 11:31:11;;;;;;;9.60;7.97;;;10.60;96.30;;;;;;4975886;28;20516;-76
2022/04/24 11:33:37;;;;;;;10.57;8.00;;;10.40;96.30;;;;;;4976001;28;20418;-77
2022/04/24 11:36:05;;;;;;;11.53;8.60;;;10.30;96.30;;;;;;4958251;28;21005;-77
2022/04/24 11:38:31;;;;;;;11.70;9.63;;;10.20;96.30;;;;;;4974894;28;20409;-77
2022/04/24 11:41:01;;;;;;;8.93;7.17;;;10.10;96.30;;;;;;4975520;28;20438;-77
2022/04/24 11:43:27;;;;;;;9.70;8.57;;;9.90;96.30;;;;;;4958121;28;20422;-76
2022/04/24 11:51:23;;;;;;;8.13;7.33;;;9.70;96.30;;;;;;4975369;28;20433;-76
2022/04/24 11:53:48;;;;;;;10.30;6.37;;;9.40;96.30;;;;;;4975105;28;20420;-76
2022/04/24 11:56:15;;;;;;;15.20;10.33;;;9.50;96.30;;;;;;4956707;28;20456;-76
2022/04/24 11:58:44;;;;;;;7.73;6.93;;;9.40;96.30;;;;;;4963909;28;20431;-76
2022/04/24 12:01:17;;;;;;;10.00;7.20;;;9.30;96.30;;;;;;4974451;28;20437;-77
2022/04/24 12:03:44;;;;;;;9.10;8.20;;;9.20;96.30;;;;;;4975668;28;20464;-76
2022/04/24 12:06:11;;;;;;;12.93;9.33;;;9.10;96.30;;;;;;4957029;28;20935;-77
2022/04/24 12:08:43;;;;;;;10.10;8.60;;;9.00;96.30;;;;;;4954473;28;20426;-74
2022/04/24 12:11:29;;;;;;;10.47;8.40;;;8.90;96.30;;;;;;4951797;28;20446;-77
2022/04/24 12:14:13;;;;;;;10.33;9.33;;;8.70;96.30;;;;;;4969792;28;20991;-76
2022/04/24 12:16:45;;;;;;;12.10;10.53;;;8.60;96.30;;;;;;4966302;28;20454;-77
2022/04/24 12:19:12;;;;;;;15.70;10.70;;;;;;;;;;4965086;28;20939;-71
2022/04/24 12:21:46;;;;;;;18.20;9.90;;;8.40;96.30;;;;;;4957274;28;20976;-70
2022/04/24 12:24:12;;;;;;;13.80;12.40;;;;;;;;;;4956421;28;20433;-72
2022/04/24 12:26:51;;;;;;;13.23;11.93;;;8.20;96.30;;;;;;4974594;28;20821;-72
2022/04/24 12:29:17;;;;;;;13.63;11.50;;;8.20;96.30;;;;;;4977270;28;20439;-71
2022/04/24 12:31:44;;;;;;;17.87;12.77;;;8.20;96.30;;;;;;4953571;28;20457;-72
2022/04/24 12:34:09;;;;;;;17.07;12.03;;;8.10;96.30;;;;;;4955091;29;20485;-70
2022/04/24 12:36:35;;;;;;;17.00;13.03;;;8.10;96.30;;;;;;4953643;29;20462;-71
2022/04/24 12:39:04;;;;;;;18.10;14.40;;;8.20;96.30;;;;;;4969290;28;20642;-71
2022/04/24 12:41:30;;;;;;;16.73;12.90;;;8.30;96.30;;;;;;4974476;28;20229;-71
2022/04/24 12:44:04;;;;;;;15.77;14.00;;;8.30;96.30;;;;;;4974427;28;20418;-73
2022/04/24 12:46:30;;;;;;;20.03;14.37;;;8.30;96.30;;;;;;4974409;28;20413;-73
2022/04/24 12:48:57;;;;;;;16.50;14.23;;;8.30;96.30;;;;;;4973655;28;20807;-75
2022/04/24 12:51:24;;;;;;;16.13;14.30;;;8.20;96.30;;;;;;4953670;28;20447;-76
2022/04/24 12:53:51;;;;;;;18.70;15.60;;;8.30;96.30;;;;;;4955527;28;20422;-76
2022/04/24 12:56:17;;;;;;;17.77;13.53;;;;;;;;;;4946752;28;20834;-75
2022/04/24 12:58:43;;;;;;;16.33;14.23;;;8.40;96.30;;;;;;4936834;29;20413;-74
2022/04/24 13:01:11;;;;;;;16.07;14.37;;;8.50;96.30;;;;;;4955293;28;20462;-76
2022/04/24 13:03:37;;;;;;;16.00;14.37;;;;;;;;;;4978226;28;20432;-76
2022/04/24 13:06:03;;;;;;;16.70;15.00;;;8.60;96.30;;;;;;4975962;28;20507;-73
2022/04/24 13:08:29;;;;;;;16.67;14.73;;;;;;;;;;4992460;28;20528;-75
2022/04/24 13:10:55;;;;;;;16.70;15.00;;;8.70;96.30;;;;;;4993184;28;20220;-76
2022/04/24 13:13:20;;;;;;;13.53;12.23;;;8.60;96.30;;;;;;4975948;28;20519;-76
2022/04/24 13:18:07;;;;;;;14.90;13.50;;;8.50;96.30;;;;;;4973049;28;20645;-75
2022/04/24 13:18:31;;;;;;;14.33;12.83;;;8.40;96.30;;;;;;4973161;28;20265;-73
2022/04/24 13:20:57;;;;;;;12.60;11.30;;;;;;;;;;4956180;28;20528;-75
2022/04/24 13:23:23;;;;;;;14.60;13.10;;;8.20;96.30;;;;;;4956400;28;20917;-72
2022/04/24 13:25:48;;;;;;;17.27;12.87;;;8.10;96.30;;;;;;4956391;28;20213;-74
2022/04/24 13:28:14;;;;;;;14.37;12.70;;;8.10;96.30;;;;;;4973072;28;20190;-72
2022/04/24 13:30:40;;;;;;;14.80;13.30;;;8.10;96.30;;;;;;4972187;28;20209;-74
2022/04/24 13:33:06;;;;;;;14.63;12.97;;;;;;;;;;4973250;28;20548;-74
2022/04/24 13:35:31;;;;;;;15.33;13.07;;;8.20;96.30;;;;;;4973673;28;20228;-74
2022/04/24 13:40:41;;;;;;;15.30;13.00;;;8.10;96.30;;;;;;4973229;28;20209;-74
2022/04/24 13:43:07;;;;;;;14.00;12.60;;;;;;;;;;4973285;28;20426;-75
2022/04/24 13:45:36;;;;;;;17.30;14.30;;;8.10;96.30;;;;;;4967159;28;20234;-75
2022/04/24 13:48:03;;;;;;;13.30;11.67;;;8.00;96.30;;;;;;4955586;28;20688;-77
2022/04/24 14:55:59;;;;;;;14.23;12.50;;;7.80;96.30;;;;;;5300750;23;20481;-75
2022/04/24 15:02:53;;;;;;;15.57;13.20;;;7.70;96.30;;;;;;5260698;23;20505;-76
2022/04/24 15:09:43;;;;;;;17.47;12.77;;;7.50;96.30;;;;;;4973386;28;20947;-76
2022/04/24 15:22:32;;;;;;;14.47;12.83;;;7.30;96.30;;;;;;5098331;22;20511;-75
2022/04/24 15:24:58;;;;;;;12.97;10.33;;;;;;;;;;4959494;28;20572;-76
2022/04/24 15:27:23;;;;;;;6.97;6.30;;;7.20;96.30;;;;;;4977624;28;20402;-75
2022/04/24 15:29:49;;;;;;;13.40;10.20;;;;;;;;;;4959701;28;20333;-77
2022/04/24 15:48:22;;;;;;;8.80;7.03;;;6.90;96.30;;;;;;5209691;23;20480;-77
2022/04/24 15:54:48;;;;;;;9.93;8.87;;;6.80;96.30;;;;;;4958238;29;20441;-75
2022/04/24 15:57:14;;;;;;;7.47;6.63;;;6.70;96.30;;;;;;4935478;29;20501;-75
2022/04/24 15:59:39;;;;;;;9.13;8.23;;;6.70;96.30;;;;;;4957544;29;20407;-75
2022/04/24 16:02:09;;;;;;;8.50;7.60;;;6.60;96.30;;;;;;4936884;29;20447;-75
2022/04/24 16:04:34;;;;;;;9.70;7.10;;;6.60;96.30;;;;;;4938574;29;20211;-74
2022/04/24 16:07:00;;;;;;;7.57;6.80;;;6.60;96.30;;;;;;4938442;29;20465;-71
2022/04/24 16:09:25;;;;;;;9.00;6.10;;;6.50;96.30;;;;;;4938199;29;20211;-73
2022/04/24 16:11:51;;;;;;;6.60;5.70;;;6.50;96.30;;;;;;4945469;29;20254;-72
2022/04/24 16:14:17;;;;;;;8.57;7.47;;;6.50;96.30;;;;;;4951911;29;20652;-78
2022/04/24 16:16:42;;;;;;;8.37;6.47;;;6.50;96.30;;;;;;4940040;29;20206;-72
2022/04/24 16:19:08;;;;;;;9.40;5.93;;;6.40;96.30;;;;;;4936823;29;20203;-71
2022/04/24 16:21:34;;;;;;;6.20;5.70;;;6.30;96.30;;;;;;4936644;29;20279;-72
2022/04/24 16:24:00;;;;;;;7.70;5.30;;;;;;;;;;4936815;29;20180;-73
2022/04/24 16:26:25;;;;;;;4.30;3.90;;;6.20;96.30;;;;;;4919742;29;20424;-74
2022/04/24 16:28:52;;;;;;;5.10;4.53;;;6.20;96.30;;;;;;4919113;29;20183;-72
2022/04/24 16:31:21;;;;;;;7.57;6.47;;;6.20;96.30;;;;;;4936445;29;20187;-74
2022/04/24 16:33:47;;;;;;;4.63;4.10;;;6.20;96.30;;;;;;4934148;29;20477;-72
2022/04/24 16:36:13;;;;;;;5.60;4.27;;;6.20;96.30;;;;;;4941099;29;21026;-73
2022/04/24 16:38:39;;;;;;;4.80;4.30;;;6.10;96.30;;;;;;4930475;29;20214;-72
2022/04/24 16:41:05;;;;;;;4.63;4.00;;;6.10;96.30;;;;;;4933873;29;20442;-73
2022/04/24 16:43:31;;;;;;;5.63;4.20;;;6.00;96.30;;;;;;4906894;29;20428;-72
2022/04/24 16:46:03;;;;;;;5.60;5.00;;;6.00;96.30;;;;;;4936475;29;20259;-72
2022/04/24 16:48:29;;;;;;;5.17;4.63;;;5.90;96.30;;;;;;4935336;29;20171;-72
2022/04/24 16:59:07;;;;;;;4.00;3.57;;;5.70;96.30;;;;;;4935929;29;20406;-72
2022/04/24 17:01:33;;;;;;;4.10;3.50;;;5.60;96.30;;;;;;4918428;29;20439;-73
2022/04/24 17:03:58;;;;;;;4.17;3.77;;;5.60;96.30;;;;;;4918658;29;20274;-72
2022/04/24 17:06:24;;;;;;;4.50;3.20;;;5.60;96.30;;;;;;4935723;29;20707;-72
2022/04/24 17:08:49;;;;;;;4.77;4.33;;;5.60;96.30;;;;;;4938619;29;20205;-73
2022/04/24 17:11:15;;;;;;;6.63;4.03;;;5.50;96.30;;;;;;4935341;29;20259;-75
2022/04/24 17:13:41;;;;;;;4.70;3.43;;;5.60;96.30;;;;;;4935412;29;20202;-74
2022/04/24 17:16:10;;;;;;;4.90;3.50;;;5.60;96.30;;;;;;4916818;29;20459;-77
2022/04/24 17:18:37;;;;;;;4.67;3.43;;;5.60;96.30;;;;;;4934371;29;20416;-74
2022/04/24 17:21:05;;;;;;;4.10;3.70;;;5.60;96.30;;;;;;4933961;29;20490;-74
2022/04/24 17:23:32;;;;;;;4.50;4.10;;;;;;;;;;4933839;29;20430;-74
2022/04/24 17:25:59;;;;;;;3.57;2.70;;;5.60;96.30;;;;;;4917930;29;20506;-74
2022/04/24 17:28:25;;;;;;;4.90;2.90;;;5.60;96.30;;;;;;4934409;29;20531;-74
2022/04/24 17:30:51;;;;;;;4.90;4.00;;;5.60;96.30;;;;;;4917669;29;20456;-73
2022/04/24 17:33:17;;;;;;;5.13;3.63;;;5.70;96.30;;;;;;4917875;29;20187;-74
2022/04/24 17:35:42;;;;;;;3.90;3.20;;;5.70;96.30;;;;;;4917773;29;20466;-74
2022/04/24 17:38:08;;;;;;;5.33;3.90;;;;;;;;;;4934472;29;20517;-76
2022/04/24 17:40:34;;;;;;;5.97;5.23;;;5.70;96.30;;;;;;4917742;29;20203;-73
2022/04/24 17:42:59;;;;;;;7.80;4.47;;;5.70;96.30;;;;;;4930945;29;20183;-74
2022/04/24 17:45:25;;;;;;;5.80;5.17;;;5.70;96.30;;;;;;4938539;28;20271;-75
2022/04/24 17:47:52;;;;;;;3.87;3.47;;;5.70;96.30;;;;;;4941710;29;20535;-75
2022/04/24 17:50:18;;;;;;;4.50;4.10;;;5.80;96.30;;;;;;4946472;28;20433;-74
2022/04/24 17:52:44;;;;;;;5.87;4.40;;;5.90;96.30;;;;;;4945834;29;20432;-74
2022/04/24 17:55:10;;;;;;;6.50;5.30;;;5.90;96.30;;;;;;4935074;29;20438;-73
2022/04/24 17:57:36;;;;;;;4.73;4.33;;;5.90;96.30;;;;;;4931924;29;20510;-74
2022/04/24 18:00:04;;;;;;;5.50;4.57;;;5.90;96.30;;;;;;4917984;29;20465;-74
2022/04/24 18:02:30;;;;;;;5.87;4.00;;;;;;;;;;4933488;29;20823;-73
2022/04/24 18:04:56;;;;;;;5.20;4.70;;;5.90;96.30;;;;;;4932771;29;20920;-74
2022/04/24 18:07:22;;;;;;;4.23;3.83;;;5.90;96.30;;;;;;4946454;29;20425;-73
2022/04/24 18:09:47;;;;;;;4.97;4.27;;;5.90;96.30;;;;;;4944903;29;20187;-75
2022/04/24 18:12:14;;;;;;;6.57;5.93;;;5.90;96.30;;;;;;4935824;29;20211;-76
2022/04/24 18:14:39;;;;;;;5.97;5.37;;;5.80;96.30;;;;;;4915112;29;20175;-75
2022/04/24 18:17:05;;;;;;;6.67;5.60;;;5.80;96.30;;;;;;4933987;29;20542;-73
2022/04/24 18:19:31;;;;;;;6.40;5.80;;;5.80;96.30;;;;;;4932755;29;20208;-72
2022/04/24 18:21:59;;;;;;;9.13;5.90;;;5.80;96.30;;;;;;4935828;29;20203;-73
2022/04/24 18:24:25;;;;;;;5.83;5.23;;;5.70;96.30;;;;;;4928588;29;20236;-73
2022/04/24 18:26:52;;;;;;;6.20;4.50;;;5.70;96.30;;;;;;4927248;29;20849;-73
2022/04/24 18:29:18;;;;;;;8.43;5.30;;;;;;;;;;4929986;29;20931;-77
2022/04/24 18:31:45;;;;;;;6.90;5.33;;;5.70;96.30;;;;;;4930926;29;20439;-75
2022/04/24 18:34:10;;;;;;;6.03;4.40;;;5.70;96.30;;;;;;4930634;29;20183;-75
2022/04/24 18:39:20;;;;;;;7.60;6.10;;;;;;;;;;4934596;29;20549;-76
2022/04/24 18:41:47;;;;;;;4.87;4.47;;;5.70;96.30;;;;;;4917457;29;20424;-76
2022/04/24 18:44:13;;;;;;;6.77;5.37;;;5.70;96.30;;;;;;4934233;29;20427;-75
2022/04/24 18:46:40;;;;;;;6.40;5.80;;;5.70;96.30;;;;;;4934381;29;20412;-75
2022/04/24 18:49:05;;;;;;;5.30;4.50;;;5.70;96.30;;;;;;4917346;29;20427;-75
2022/04/24 18:51:32;;;;;;;5.73;5.13;;;5.70;96.30;;;;;;4935673;29;20454;-75
2022/04/24 18:53:58;;;;;;;5.70;5.20;;;5.70;96.30;;;;;;4936428;29;20183;-76
2022/04/24 18:56:23;;;;;;;8.80;5.70;;;5.80;96.30;;;;;;4935367;29;20475;-76
2022/04/24 18:58:50;;;;;;;6.40;5.80;;;5.70;96.30;;;;;;4936679;29;20262;-75